Time;durP1;ratioP1;P1;durP2;ratioP2;P2;SDS_P1;SDS_P2;PMS_P1;PMS_P2;Temp;Humidity;BMP_temperature;BMP_pressure;BME280_temperature;BME280_humidity;BME280_pressure;Samples;Min_cycle;Max_cycle;Signal;HPM_P1;HPM_P2
2022/11/07 00:01:49;;;;;;;70.50;26.60;;;;;;;2.19;100.00;99555.36;100439;1340;22862;-34
2022/11/07 00:04:14;;;;;;;91.00;31.20;;;;;;;2.20;100.00;99556.67;100483;1341;22496;-31
2022/11/07 00:06:40;;;;;;;90.40;31.40;;;;;;;2.21;100.00;99552.38;100560;1341;22503;-32
2022/11/07 00:09:06;;;;;;;71.40;26.80;;;;;;;2.22;100.00;99549.91;100593;1337;25958;-31
2022/11/07 00:11:31;;;;;;;70.70;23.90;;;;;;;2.24;100.00;99549.25;100490;1341;22763;-32
2022/11/07 00:13:57;;;;;;;60.10;25.30;;;;;;;2.24;100.00;99548.33;100575;1341;22899;-32
2022/11/07 00:16:22;;;;;;;94.90;32.60;;;;;;;2.26;100.00;99546.46;100529;1341;23011;-35
2022/11/07 00:18:48;;;;;;;74.40;24.70;;;;;;;2.27;100.00;99542.11;100518;1334;22582;-32
2022/11/07 00:21:13;;;;;;;64.50;24.40;;;;;;;2.28;100.00;99544.59;100475;1341;22893;-32
2022/11/07 00:23:40;;;;;;;75.30;28.40;;;;;;;2.30;100.00;99543.23;100554;1341;22755;-35
2022/11/07 00:26:08;;;;;;;88.90;24.50;;;;;;;2.32;100.00;99536.70;100488;1340;22883;-40
2022/11/07 00:28:34;;;;;;;69.70;28.00;;;;;;;2.37;100.00;99540.98;100494;1341;22785;-36
2022/11/07 00:30:59;;;;;;;72.20;28.30;;;;;;;2.40;100.00;99539.52;100557;1341;22631;-36
2022/11/07 00:33:25;;;;;;;80.30;29.90;;;;;;;2.40;100.00;99540.34;100472;1341;22751;-36
2022/11/07 00:35:51;;;;;;;75.30;22.90;;;;;;;2.41;100.00;99540.59;100616;1341;22507;-36
2022/11/07 00:38:17;;;;;;;46.50;21.70;;;;;;;2.43;100.00;99536.05;100614;1341;22542;-35
2022/11/07 00:40:43;;;;;;;89.30;27.40;;;;;;;2.45;100.00;99536.77;100433;1334;22526;-36
2022/11/07 00:43:08;;;;;;;75.10;26.80;;;;;;;2.47;100.00;99537.30;100350;1326;22634;-35
2022/11/07 00:45:34;;;;;;;70.90;26.80;;;;;;;2.49;100.00;99536.71;100433;1334;22581;-34
2022/11/07 00:48:00;;;;;;;47.60;20.10;;;;;;;2.51;100.00;99532.07;100463;1334;22747;-33
2022/11/07 00:50:25;;;;;;;71.70;24.10;;;;;;;2.53;100.00;99531.42;100471;1334;22738;-32
2022/11/07 00:52:51;;;;;;;71.80;26.10;;;;;;;2.52;100.00;99526.68;100513;1333;22878;-33
2022/11/07 00:55:16;;;;;;;52.20;21.50;;;;;;;2.54;100.00;99532.18;100569;1334;22507;-33
2022/11/07 00:57:42;;;;;;;84.50;23.20;;;;;;;2.54;100.00;99533.41;100493;1334;23174;-32
2022/11/07 01:00:08;;;;;;;57.70;23.00;;;;;;;2.50;100.00;99524.23;100479;1341;23216;-37
2022/11/07 01:02:34;;;;;;;81.60;31.70;;;;;;;2.48;100.00;99524.10;100333;1342;22522;-35
2022/11/07 01:07:28;;;;;;;74.20;27.80;;;;;;;2.42;100.00;99512.05;100571;1340;22874;-30
2022/11/07 01:09:54;;;;;;;59.30;23.50;;;;;;;2.40;100.00;99513.34;100552;1342;22508;-36
2022/11/07 01:12:20;;;;;;;172.40;61.70;;;;;;;2.39;100.00;99506.05;100595;1341;22764;-34
2022/11/07 01:14:45;;;;;;;179.40;58.60;;;;;;;2.39;100.00;99507.11;100450;1341;22592;-35
2022/11/07 01:17:11;;;;;;;126.40;37.80;;;;;;;2.40;100.00;99506.31;100443;1327;22536;-35
2022/11/07 01:19:36;;;;;;;125.00;40.20;;;;;;;2.39;100.00;99501.25;100475;1341;22878;-32
2022/11/07 01:22:01;;;;;;;93.40;32.60;;;;;;;2.41;100.00;99499.66;100551;1341;22767;-32
2022/11/07 01:24:27;;;;;;;79.60;33.50;;;;;;;2.44;100.00;99492.69;100547;1341;22505;-31
2022/11/07 01:26:53;;;;;;;61.70;27.10;;;;;;;2.45;100.00;99492.90;100503;1326;22814;-32
2022/11/07 01:29:18;;;;;;;39.70;17.90;;;;;;;2.46;100.00;99491.99;100515;1334;24350;-32
2022/11/07 01:31:44;;;;;;;46.60;18.10;;;;;;;2.46;100.00;99496.14;100552;1341;23753;-34
2022/11/07 01:34:10;;;;;;;83.40;31.50;;;;;;;2.50;100.00;99501.86;100575;1341;22508;-34
2022/11/07 01:36:35;;;;;;;49.70;20.90;;;;;;;2.52;100.00;99504.46;100556;1341;22763;-34
2022/11/07 01:39:01;;;;;;;54.00;21.40;;;;;;;2.58;100.00;99503.90;100512;1341;22774;-31
2022/11/07 01:41:29;;;;;;;33.50;15.50;;;;;;;2.65;100.00;99503.25;100545;1333;22774;-34
2022/11/07 01:43:57;;;;;;;48.20;21.20;;;;;;;2.71;100.00;99500.92;100527;1341;22582;-35
2022/11/07 01:46:26;;;;;;;57.70;26.00;;;;;;;2.78;100.00;99504.31;100501;1341;22515;-35
2022/11/07 01:48:56;;;;;;;58.50;22.60;;;;;;;2.76;100.00;99500.59;100455;1341;22868;-32
2022/11/07 01:51:22;;;;;;;48.20;19.80;;;;;;;2.75;100.00;99502.61;100440;1340;24375;-32
2022/11/07 01:53:47;;;;;;;48.70;20.80;;;;;;;2.76;100.00;99497.77;100653;1341;22751;-36
2022/11/07 01:56:14;;;;;;;56.80;22.20;;;;;;;2.81;100.00;99492.43;100559;1334;22507;-38
2022/11/07 01:58:41;;;;;;;18.10;9.90;;;;;;;2.79;100.00;99489.20;100642;1333;22737;-33
2022/11/07 02:01:06;;;;;;;56.90;25.00;;;;;;;2.74;100.00;99476.42;100700;1340;22904;-36
2022/11/07 02:03:32;;;;;;;23.10;13.10;;;;;;;2.72;100.00;99470.98;100495;1342;22756;-35
2022/11/07 02:06:00;;;;;;;52.20;23.70;;;;;;;2.79;100.00;99479.13;100493;1341;22946;-37
2022/11/07 02:08:25;;;;;;;49.50;21.30;;;;;;;3.00;100.00;99479.60;100411;1339;22524;-32
2022/11/07 02:10:51;;;;;;;55.10;21.10;;;;;;;3.19;100.00;99481.65;100569;1340;22524;-32
2022/11/07 02:13:22;;;;;;;53.60;24.80;;;;;;;3.24;100.00;99478.01;100445;1334;22783;-35
2022/11/07 02:15:47;;;;;;;54.30;22.00;;;;;;;3.30;100.00;99476.77;100536;1333;22505;-32
2022/11/07 02:18:13;;;;;;;69.60;25.90;;;;;;;3.40;100.00;99476.46;100469;1341;22857;-35
2022/11/07 02:20:38;;;;;;;66.60;27.10;;;;;;;3.47;100.00;99475.19;100442;1333;22918;-35
2022/11/07 02:23:07;;;;;;;37.70;18.00;;;;;;;3.55;100.00;99478.36;100527;1341;22879;-36
2022/11/07 02:25:33;;;;;;;38.90;18.20;;;;;;;3.59;100.00;99472.86;100497;1341;22520;-32
2022/11/07 02:28:00;;;;;;;60.60;23.80;;;;;;;3.63;100.00;99474.98;100562;1340;22755;-35
2022/11/07 02:30:27;;;;;;;59.20;21.80;;;;;;;3.68;100.00;99471.98;100659;1333;22512;-35
2022/11/07 02:32:52;;;;;;;;;;;;;;;3.71;100.00;99467.96;100666;1341;22512;-40
2022/11/07 02:35:25;;;;;;;43.90;19.40;;;;;;;3.76;100.00;99461.80;100557;1341;22911;-32
2022/11/07 02:37:50;;;;;;;49.90;23.30;;;;;;;3.78;100.00;99462.88;100615;1341;22769;-32
2022/11/07 02:40:16;;;;;;;53.60;22.30;;;;;;;3.81;100.00;99461.34;100495;1341;22753;-32
2022/11/07 02:42:42;;;;;;;69.60;28.50;;;;;;;3.84;100.00;99457.09;100583;1336;22507;-33
2022/11/07 02:45:10;;;;;;;33.80;16.10;;;;;;;3.86;100.00;99457.98;100491;1341;22506;-32
2022/11/07 02:47:36;;;;;;;45.70;23.00;;;;;;;3.88;100.00;99457.06;100587;1333;22758;-35
2022/11/07 02:50:02;;;;;;;36.80;16.70;;;;;;;3.93;100.00;99462.25;100468;1341;22718;-32
2022/11/07 02:52:27;;;;;;;32.90;16.30;;;;;;;3.99;100.00;99461.77;100551;1333;22764;-36
2022/11/07 02:54:53;;;;;;;35.60;15.20;;;;;;;4.03;100.00;99465.66;100504;1332;22764;-32
2022/11/07 02:57:18;;;;;;;29.90;16.60;;;;;;;4.05;100.00;99468.88;100505;1341;24296;-34
2022/11/07 02:59:45;;;;;;;39.40;17.70;;;;;;;4.08;100.00;99471.20;100364;1334;22888;-32
2022/11/07 03:02:10;;;;;;;49.40;22.90;;;;;;;4.16;100.00;99469.00;100517;1336;22891;-32
2022/11/07 03:04:36;;;;;;;42.00;15.40;;;;;;;4.17;100.00;99464.92;100455;1334;23104;-35
2022/11/07 03:07:01;;;;;;;40.40;16.90;;;;;;;4.13;100.00;99457.52;100412;1341;22765;-32
2022/11/07 03:09:27;;;;;;;36.20;16.40;;;;;;;4.18;100.00;99455.45;100564;1341;22755;-35
2022/11/07 03:11:53;;;;;;;42.40;19.50;;;;;;;4.25;100.00;99460.63;100598;1341;22867;-34
2022/11/07 03:14:19;;;;;;;65.40;24.90;;;;;;;4.30;100.00;99460.49;100503;1341;22994;-32
2022/11/07 03:16:44;;;;;;;70.10;25.60;;;;;;;4.36;100.00;99462.23;100506;1341;22586;-33
2022/11/07 03:19:10;;;;;;;47.20;21.50;;;;;;;4.40;100.00;99470.13;100451;1341;22886;-33
2022/11/07 03:21:36;;;;;;;57.70;22.40;;;;;;;4.42;100.00;99474.35;100493;1341;22921;-35
2022/11/07 03:24:01;;;;;;;42.20;18.70;;;;;;;4.43;100.00;99469.30;100551;1341;22873;-37
2022/11/07 03:26:27;;;;;;;40.00;19.20;;;;;;;4.36;100.00;99455.46;100495;1340;23013;-35
2022/11/07 03:28:52;;;;;;;30.10;13.40;;;;;;;4.31;100.00;99449.77;100457;1341;22910;-32
2022/11/07 03:31:18;;;;;;;46.90;21.30;;;;;;;4.30;100.00;99448.64;100455;1335;22709;-35
2022/11/07 03:33:43;;;;;;;39.60;15.50;;;;;;;4.29;100.00;99448.54;100532;1341;23885;-35
2022/11/07 03:36:09;;;;;;;24.10;12.00;;;;;;;4.29;100.00;99445.38;100585;1341;22533;-37
2022/11/07 03:38:34;;;;;;;27.60;13.20;;;;;;;4.28;100.00;99447.92;100549;1341;22890;-37
2022/11/07 03:41:00;;;;;;;35.70;13.50;;;;;;;4.29;100.00;99456.14;100499;1341;22654;-35
2022/11/07 03:43:25;;;;;;;26.50;14.80;;;;;;;4.30;100.00;99455.70;100579;1339;22780;-32
2022/11/07 03:45:51;;;;;;;51.10;17.80;;;;;;;4.31;100.00;99462.34;100531;1335;22519;-32
2022/11/07 03:48:16;;;;;;;22.10;10.40;;;;;;;4.33;100.00;99459.66;100508;1341;22887;-32
2022/11/07 03:50:42;;;;;;;46.70;15.50;;;;;;;4.42;100.00;99464.23;100405;1342;22884;-35
2022/11/07 03:53:08;;;;;;;46.30;20.00;;;;;;;4.51;100.00;99470.05;100549;1340;22718;-35
2022/11/07 03:55:33;;;;;;;30.80;13.50;;;;;;;4.53;100.00;99467.74;100464;1327;23019;-32
2022/11/07 03:57:59;;;;;;;23.40;12.70;;;;;;;4.54;100.00;99459.40;100501;1341;22751;-32
2022/11/07 04:00:24;;;;;;;40.40;13.50;;;;;;;4.55;100.00;99455.30;100538;1341;22505;-34
2022/11/07 04:02:50;;;;;;;31.40;14.60;;;;;;;4.57;100.00;99458.92;100498;1333;22524;-35
2022/11/07 04:05:15;;;;;;;35.30;17.80;;;;;;;4.62;100.00;99460.79;100527;1341;23730;-33
2022/11/07 04:07:41;;;;;;;28.90;12.70;;;;;;;4.61;100.00;99459.59;100098;1341;467336;-33
2022/11/07 04:10:07;;;;;;;28.80;13.10;;;;;;;4.59;100.00;99459.45;100578;1341;22519;-35
2022/11/07 04:17:32;;;;;;;20.70;10.50;;;;;;;4.57;100.00;99461.29;100560;1341;22767;-35
2022/11/07 04:19:57;;;;;;;27.10;13.20;;;;;;;4.54;100.00;99460.04;100501;1341;22752;-32
2022/11/07 04:22:23;;;;;;;30.20;13.70;;;;;;;4.53;100.00;99459.51;100508;1341;22885;-33
2022/11/07 04:24:49;;;;;;;34.90;16.70;;;;;;;4.57;100.00;99466.94;100462;1333;22511;-36
2022/11/07 04:29:44;;;;;;;49.20;20.00;;;;;;;4.72;100.00;99479.30;100508;1341;25347;-32
2022/11/07 04:32:09;;;;;;;38.30;15.50;;;;;;;4.74;100.00;99478.79;100542;1327;22502;-33
2022/11/07 04:34:35;;;;;;;20.70;11.60;;;;;;;4.75;100.00;99480.72;100529;1333;23233;-35
2022/11/07 04:37:00;;;;;;;34.60;14.20;;;;;;;4.77;100.00;99481.06;100486;1333;22896;-35
2022/11/07 04:39:26;;;;;;;26.70;13.50;;;;;;;4.77;100.00;99481.77;100529;1341;22520;-32
2022/11/07 04:41:51;;;;;;;31.80;13.90;;;;;;;4.80;100.00;99485.02;100555;1335;22896;-34
2022/11/07 04:44:17;;;;;;;37.90;14.70;;;;;;;4.83;100.00;99486.09;100540;1341;22742;-32
2022/11/07 04:46:42;;;;;;;34.10;14.50;;;;;;;4.87;100.00;99481.40;100477;1341;24268;-35
2022/11/07 04:49:07;;;;;;;41.60;17.40;;;;;;;4.95;100.00;99478.17;100568;1333;23269;-32
2022/11/07 04:51:33;;;;;;;26.00;13.50;;;;;;;4.96;100.00;99475.92;100524;1341;24797;-35
2022/11/07 04:53:58;;;;;;;32.30;14.50;;;;;;;4.99;100.00;99476.26;100467;1342;22752;-35
2022/11/07 04:56:24;;;;;;;33.70;15.20;;;;;;;5.04;100.00;99475.27;100515;1341;23143;-31
2022/11/07 04:58:49;;;;;;;32.90;15.40;;;;;;;5.09;100.00;99472.81;100564;1341;22875;-35
2022/11/07 05:01:15;;;;;;;26.60;10.60;;;;;;;5.11;100.00;99468.96;100496;1333;23299;-33
2022/11/07 05:03:40;;;;;;;26.60;12.80;;;;;;;5.14;100.00;99466.55;100485;1333;23900;-33
2022/11/07 05:06:07;;;;;;;31.50;12.10;;;;;;;5.16;100.00;99466.33;100575;1340;23586;-33
2022/11/07 05:08:33;;;;;;;24.30;12.20;;;;;;;5.18;100.00;99455.72;100587;1341;22741;-36
2022/11/07 05:10:58;;;;;;;30.80;12.60;;;;;;;5.21;100.00;99456.98;100614;1333;22656;-33
2022/11/07 05:13:24;;;;;;;34.90;14.70;;;;;;;5.22;100.00;99456.71;100550;1341;22879;-33
2022/11/07 05:15:50;;;;;;;25.00;15.30;;;;;;;5.22;100.00;99452.84;100492;1341;22884;-34
2022/11/07 05:18:19;;;;;;;30.80;12.00;;;;;;;5.23;100.00;99452.36;100399;1341;22881;-31
2022/11/07 05:20:45;;;;;;;27.30;12.50;;;;;;;5.24;100.00;99450.33;100680;1334;22879;-37
2022/11/07 05:23:11;;;;;;;27.10;13.20;;;;;;;5.29;100.00;99446.23;100597;1341;23590;-32
2022/11/07 05:25:38;;;;;;;22.10;11.40;;;;;;;5.29;100.00;99439.61;100596;1333;22888;-36
2022/11/07 05:28:04;;;;;;;22.10;10.60;;;;;;;5.26;100.00;99436.95;100575;1333;22741;-32
2022/11/07 05:30:30;;;;;;;26.20;11.50;;;;;;;5.24;100.00;99441.73;100605;1330;23350;-35
2022/11/07 05:32:55;;;;;;;18.10;8.20;;;;;;;5.25;100.00;99440.36;100478;1333;22768;-35
2022/11/07 05:35:21;;;;;;;27.50;13.90;;;;;;;5.31;100.00;99445.23;100410;1341;22750;-36
2022/11/07 05:37:47;;;;;;;37.60;15.90;;;;;;;5.34;100.00;99446.19;100542;1333;22761;-35
2022/11/07 05:40:13;;;;;;;29.30;14.60;;;;;;;5.38;100.00;99447.92;100449;1333;22515;-35
2022/11/07 05:42:39;;;;;;;22.50;10.80;;;;;;;5.35;100.00;99453.14;100520;1341;22865;-32
2022/11/07 05:45:05;;;;;;;33.90;14.30;;;;;;;5.37;100.00;99457.05;100518;1341;22515;-33
2022/11/07 05:47:31;;;;;;;42.70;16.50;;;;;;;5.40;100.00;99459.92;100495;1342;22584;-34
2022/11/07 05:49:56;;;;;;;25.60;11.80;;;;;;;5.44;100.00;99459.50;100446;1341;22979;-37
2022/11/07 05:52:22;;;;;;;29.00;13.50;;;;;;;5.45;100.00;99451.98;100554;1341;22879;-36
2022/11/07 05:54:47;;;;;;;22.00;11.90;;;;;;;5.45;100.00;99453.22;100522;1333;22762;-32
2022/11/07 05:57:13;;;;;;;28.70;14.00;;;;;;;5.43;100.00;99466.55;100523;1342;23101;-35
2022/11/07 05:59:38;;;;;;;23.50;12.70;;;;;;;5.39;100.00;99469.27;100618;1332;25574;-32
2022/11/07 06:02:04;;;;;;;18.00;10.10;;;;;;;5.44;100.00;99468.79;100521;1334;22513;-35
2022/11/07 06:04:30;;;;;;;32.10;13.70;;;;;;;5.48;100.00;99466.41;100525;1340;22907;-32
2022/11/07 06:06:55;;;;;;;24.50;13.60;;;;;;;5.48;100.00;99467.24;100564;1335;22666;-33
2022/11/07 06:09:21;;;;;;;28.10;14.40;;;;;;;5.46;100.00;99471.55;100488;1341;23118;-33
2022/11/07 06:11:47;;;;;;;29.40;13.30;;;;;;;5.44;100.00;99476.27;100512;1342;23002;-32
2022/11/07 06:14:13;;;;;;;26.70;15.10;;;;;;;5.43;100.00;99479.90;100562;1333;23049;-33
2022/11/07 06:16:39;;;;;;;22.30;12.10;;;;;;;5.39;100.00;99487.18;100514;1341;23923;-36
2022/11/07 06:19:04;;;;;;;31.20;14.00;;;;;;;5.42;100.00;99484.08;100485;1341;22916;-32
2022/11/07 06:21:30;;;;;;;25.20;11.90;;;;;;;5.45;100.00;99484.87;100534;1334;22740;-35
2022/11/07 06:23:56;;;;;;;33.40;14.40;;;;;;;5.43;100.00;99487.86;100420;1337;22763;-35
2022/11/07 06:26:22;;;;;;;30.70;14.00;;;;;;;5.44;100.00;99486.54;100562;1341;22511;-36
2022/11/07 06:28:47;;;;;;;15.10;7.90;;;;;;;5.46;100.00;99483.82;100533;1341;22753;-36
2022/11/07 06:31:13;;;;;;;18.90;11.30;;;;;;;5.45;100.00;99476.08;100500;1339;22759;-36
2022/11/07 06:33:38;;;;;;;21.50;10.00;;;;;;;5.43;100.00;99473.65;100559;1341;22573;-35
2022/11/07 06:36:07;;;;;;;30.10;14.60;;;;;;;5.47;100.00;99474.79;100547;1341;22875;-35
2022/11/07 06:38:33;;;;;;;21.40;10.60;;;;;;;5.52;100.00;99473.74;100498;1340;22762;-32
2022/11/07 06:41:05;;;;;;;18.40;11.20;;;;;;;5.53;100.00;99469.22;100428;1341;22875;-37
2022/11/07 06:43:31;;;;;;;28.60;14.50;;;;;;;5.55;100.00;99478.22;100524;1341;22522;-32
2022/11/07 06:45:56;;;;;;;30.90;13.50;;;;;;;5.62;100.00;99489.23;100526;1340;23008;-35
2022/11/07 06:48:22;;;;;;;23.80;13.40;;;;;;;5.69;100.00;99491.23;100466;1339;22882;-32
2022/11/07 06:50:55;;;;;;;21.50;11.90;;;;;;;5.72;100.00;99501.27;100510;1334;23089;-35
2022/11/07 06:53:21;;;;;;;18.70;10.30;;;;;;;5.81;100.00;99507.83;100594;1341;22563;-32
2022/11/07 06:55:46;;;;;;;24.00;12.50;;;;;;;5.85;100.00;99513.30;100520;1326;22519;-35
2022/11/07 06:58:12;;;;;;;22.80;12.10;;;;;;;5.88;100.00;99513.99;100410;1342;22769;-36
2022/11/07 07:00:38;;;;;;;18.90;10.90;;;;;;;5.94;100.00;99513.39;100542;1333;22506;-35
2022/11/07 07:03:03;;;;;;;19.20;12.20;;;;;;;6.00;100.00;99511.33;100501;1341;22510;-35
2022/11/07 07:05:29;;;;;;;21.40;12.80;;;;;;;6.06;100.00;99503.60;100485;1341;22775;-32
2022/11/07 07:07:54;;;;;;;21.20;12.20;;;;;;;6.09;100.00;99502.73;100566;1334;22504;-33
2022/11/07 07:10:21;;;;;;;31.60;11.90;;;;;;;6.08;100.00;99500.55;100570;1334;22498;-32
2022/11/07 07:12:48;;;;;;;11.40;6.00;;;;;;;6.18;100.00;99500.56;100617;1337;22896;-41
2022/11/07 07:15:13;;;;;;;29.80;13.50;;;;;;;6.19;100.00;99499.91;100454;1341;22516;-36
2022/11/07 07:17:39;;;;;;;8.70;5.70;;;;;;;6.23;100.00;99503.73;100542;1341;22665;-32
2022/11/07 07:20:05;;;;;;;24.70;13.30;;;;;;;6.23;100.00;99507.41;100526;1341;22643;-35
2022/11/07 07:22:31;;;;;;;15.10;8.40;;;;;;;6.28;100.00;99507.91;100527;1339;22506;-36
2022/11/07 07:24:56;;;;;;;18.80;11.40;;;;;;;6.30;100.00;99507.95;100553;1341;22738;-36
2022/11/07 07:27:22;;;;;;;28.00;12.10;;;;;;;6.34;100.00;99510.89;100493;1341;22511;-32
2022/11/07 07:29:48;;;;;;;12.70;8.50;;;;;;;6.35;100.00;99512.95;100482;1328;22499;-35
2022/11/07 07:32:14;;;;;;;29.80;13.70;;;;;;;6.39;100.00;99512.72;100511;1341;23098;-33
2022/11/07 07:34:39;;;;;;;26.30;11.00;;;;;;;6.40;100.00;99516.23;100502;1334;22764;-36
2022/11/07 07:37:05;;;;;;;18.70;10.10;;;;;;;6.46;100.00;99516.45;100571;1342;22519;-36
2022/11/07 07:39:30;;;;;;;19.40;10.20;;;;;;;6.49;100.00;99519.02;100450;1340;22921;-36
2022/11/07 07:41:56;;;;;;;21.30;12.20;;;;;;;6.51;100.00;99515.45;100523;1342;22511;-33
2022/11/07 07:44:22;;;;;;;13.30;9.90;;;;;;;6.59;100.00;99515.95;100492;1340;22499;-33
2022/11/07 07:46:47;;;;;;;18.80;10.40;;;;;;;6.63;100.00;99516.58;100555;1343;22500;-32
2022/11/07 07:49:13;;;;;;;29.20;11.10;;;;;;;6.69;100.00;99510.05;100473;1345;22893;-35
2022/11/07 07:51:38;;;;;;;23.40;12.40;;;;;;;6.69;100.00;99499.42;100595;1342;23203;-34
2022/11/07 07:54:04;;;;;;;32.70;13.30;;;;;;;6.74;100.00;99496.67;100544;1333;22868;-33
2022/11/07 07:56:30;;;;;;;18.30;8.90;;;;;;;6.79;100.00;99492.46;100610;1337;22504;-37
2022/11/07 07:58:55;;;;;;;15.90;8.80;;;;;;;6.82;100.00;99486.17;100525;1334;22774;-38
2022/11/07 08:01:21;;;;;;;21.10;10.30;;;;;;;6.89;100.00;99475.48;100547;1340;22763;-37
2022/11/07 08:03:46;;;;;;;15.10;9.40;;;;;;;6.94;100.00;99468.87;100553;1343;22761;-37
2022/11/07 08:06:12;;;;;;;15.70;9.60;;;;;;;7.06;100.00;99450.14;100500;1343;23050;-34
2022/11/07 08:08:37;;;;;;;21.50;10.20;;;;;;;6.96;100.00;99439.55;100518;1337;22874;-37
2022/11/07 08:11:05;;;;;;;12.80;9.40;;;;;;;7.00;100.00;99446.78;100557;1344;22500;-37
2022/11/07 08:13:30;;;;;;;24.30;10.40;;;;;;;7.00;100.00;99441.84;100504;1346;22512;-37
2022/11/07 08:15:56;;;;;;;14.90;9.00;;;;;;;7.14;100.00;99433.96;100504;1346;22629;-34
2022/11/07 08:18:22;;;;;;;19.70;11.90;;;;;;;7.17;100.00;99431.56;100491;1348;22521;-31
2022/11/07 08:20:49;;;;;;;14.80;9.20;;;;;;;7.06;100.00;99444.89;100543;1342;23037;-37
2022/11/07 08:23:14;;;;;;;17.90;10.40;;;;;;;7.17;100.00;99448.30;100513;1343;22876;-33
2022/11/07 08:25:41;;;;;;;17.50;10.80;;;;;;;7.10;100.00;99453.49;100556;1337;22755;-35
2022/11/07 08:28:07;;;;;;;16.80;8.90;;;;;;;7.08;100.00;99463.95;100585;1340;22716;-36
2022/11/07 08:30:34;;;;;;;15.60;10.00;;;;;;;7.20;100.00;99455.95;100584;1346;22647;-32
2022/11/07 08:33:00;;;;;;;20.00;10.30;;;;;;;7.23;100.00;99450.46;100582;1341;22907;-35
2022/11/07 08:35:26;;;;;;;19.20;9.90;;;;;;;7.24;100.00;99455.71;100443;1341;23023;-35
2022/11/07 08:37:52;;;;;;;7.80;4.80;;;;;;;7.29;100.00;99451.51;100501;1339;22873;-32
2022/11/07 08:40:18;;;;;;;17.00;8.10;;;;;;;7.43;100.00;99450.67;100524;1342;22748;-36
2022/11/07 08:42:44;;;;;;;11.90;9.50;;;;;;;7.42;100.00;99449.05;100533;1328;22765;-37
2022/11/07 08:45:09;;;;;;;14.70;7.50;;;;;;;7.41;100.00;99448.35;100513;1339;22888;-33
2022/11/07 08:47:36;;;;;;;13.00;7.10;;;;;;;7.49;100.00;99445.16;100550;1333;22523;-34
2022/11/07 08:50:03;;;;;;;24.90;7.80;;;;;;;7.52;100.00;99441.84;100566;1343;22567;-36
2022/11/07 08:52:29;;;;;;;17.90;9.00;;;;;;;7.44;100.00;99443.79;100597;1341;22631;-37
2022/11/07 08:54:54;;;;;;;18.40;7.80;;;;;;;7.58;100.00;99440.77;100458;1340;22756;-33
2022/11/07 08:57:20;;;;;;;14.70;8.40;;;;;;;7.57;100.00;99436.23;100535;1335;23192;-33
2022/11/07 08:59:46;;;;;;;16.30;8.30;;;;;;;7.39;100.00;99441.11;100366;1323;22535;-37
2022/11/07 09:02:12;;;;;;;5.70;3.10;;;;;;;7.64;100.00;99441.17;100528;1340;23244;-37
2022/11/07 09:04:37;;;;;;;16.60;7.50;;;;;;;7.93;100.00;99437.92;100507;1348;22499;-34
2022/11/07 09:07:03;;;;;;;18.10;8.30;;;;;;;8.31;100.00;99439.40;100525;1332;22939;-37
2022/11/07 09:09:29;;;;;;;12.00;8.00;;;;;;;8.55;100.00;99442.11;100482;1339;22752;-33
2022/11/07 09:11:54;;;;;;;15.50;3.80;;;;;;;8.89;100.00;99438.38;100604;1346;22582;-36
2022/11/07 09:14:20;;;;;;;7.10;5.40;;;;;;;9.11;100.00;99432.48;100463;1343;25041;-38
2022/11/07 09:16:45;;;;;;;12.70;5.50;;;;;;;9.34;100.00;99426.09;100458;1342;22751;-34
2022/11/07 09:19:11;;;;;;;7.30;4.80;;;;;;;9.66;100.00;99424.77;100497;1338;23214;-38
2022/11/07 09:21:36;;;;;;;9.20;4.20;;;;;;;9.62;100.00;99430.04;100602;1336;22505;-35
2022/11/07 09:24:02;;;;;;;10.50;3.60;;;;;;;9.79;100.00;99432.20;100482;1336;22506;-36
2022/11/07 09:26:29;;;;;;;10.90;4.00;;;;;;;9.70;100.00;99432.11;100518;1336;22762;-33
2022/11/07 09:28:54;;;;;;;6.90;5.10;;;;;;;9.88;100.00;99434.02;100556;1347;22764;-33
2022/11/07 09:31:20;;;;;;;6.40;4.10;;;;;;;9.88;100.00;99435.63;100457;1340;22744;-36
2022/11/07 09:33:45;;;;;;;2.70;2.10;;;;;;;10.07;100.00;99431.94;100487;1342;22534;-36
2022/11/07 09:36:11;;;;;;;13.60;5.50;;;;;;;10.29;100.00;99426.28;100591;1342;22499;-33
2022/11/07 09:38:37;;;;;;;8.30;4.00;;;;;;;10.40;100.00;99430.32;100547;1341;25390;-33
2022/11/07 09:41:09;;;;;;;3.90;3.40;;;;;;;10.94;96.52;99431.63;100607;1339;25315;-34
2022/11/07 09:43:38;;;;;;;3.80;2.70;;;;;;;10.97;96.37;99435.91;100490;1346;22876;-34
2022/11/07 09:46:12;;;;;;;7.10;3.00;;;;;;;11.08;95.93;99433.69;100569;1342;23106;-36
2022/11/07 09:48:42;;;;;;;6.30;4.90;;;;;;;11.23;92.84;99433.23;100600;1346;25374;-36
2022/11/07 09:51:13;;;;;;;4.20;3.20;;;;;;;11.04;94.42;99434.13;100509;1334;22752;-38
2022/11/07 09:53:41;;;;;;;8.80;3.10;;;;;;;11.38;92.05;99434.82;100474;1339;22519;-34
2022/11/07 09:56:09;;;;;;;3.50;1.80;;;;;;;11.21;92.57;99442.30;100488;1337;22507;-33
2022/11/07 09:58:39;;;;;;;5.60;3.20;;;;;;;11.14;90.64;99442.33;100479;1340;25231;-36
2022/11/07 10:01:09;;;;;;;4.30;2.90;;;;;;;10.97;90.78;99446.61;100537;1337;22535;-33
2022/11/07 10:03:36;;;;;;;3.10;1.90;;;;;;;11.04;89.90;99446.07;100559;1340;22889;-34
2022/11/07 10:06:05;;;;;;;5.30;2.70;;;;;;;10.89;90.98;99450.83;100556;1346;22494;-34
2022/11/07 10:08:37;;;;;;;5.10;4.70;;;;;;;10.83;91.25;99449.38;100529;1343;22914;-37
2022/11/07 10:11:06;;;;;;;;;;;;;;;10.81;91.82;99450.30;100642;1346;22486;-33
2022/11/07 10:13:49;;;;;;;4.60;3.00;;;;;;;10.86;91.44;99449.08;100484;1331;22717;-37
2022/11/07 10:16:22;;;;;;;4.20;3.50;;;;;;;11.22;91.44;99448.10;100568;1343;22763;-37
2022/11/07 10:19:11;;;;;;;3.30;2.90;;;;;;;11.34;89.16;99446.17;100494;1348;22572;-34
2022/11/07 10:21:42;;;;;;;8.20;3.40;;;;;;;10.96;90.86;99449.34;100458;1342;22751;-33
2022/11/07 10:24:16;;;;;;;3.10;2.40;;;;;;;11.05;91.75;99443.63;100552;1341;22738;-38
2022/11/07 10:26:43;;;;;;;4.60;1.80;;;;;;;11.07;90.34;99440.09;100458;1342;22512;-37
2022/11/07 10:29:13;;;;;;;4.80;3.10;;;;;;;10.80;92.24;99435.92;100461;1332;22522;-34
2022/11/07 10:31:41;;;;;;;4.10;2.60;;;;;;;10.94;93.93;99446.02;100461;1346;22665;-36
2022/11/07 10:34:14;;;;;;;5.80;3.70;;;;;;;11.11;92.66;99444.70;100511;1341;22507;-34
2022/11/07 10:36:40;;;;;;;6.90;3.10;;;;;;;11.15;91.27;99448.00;100607;1335;22506;-36
2022/11/07 10:39:11;;;;;;;4.20;2.30;;;;;;;11.08;90.62;99446.46;100545;1334;22509;-32
2022/11/07 10:41:37;;;;;;;5.10;2.40;;;;;;;10.83;92.15;99445.03;100510;1342;22880;-33
2022/11/07 10:44:06;;;;;;;4.30;2.10;;;;;;;10.82;92.15;99441.19;100562;1346;23024;-36
2022/11/07 10:46:37;;;;;;;4.30;2.60;;;;;;;10.76;91.73;99444.70;100562;1331;25433;-33
2022/11/07 10:49:16;;;;;;;3.90;3.20;;;;;;;10.73;92.58;99449.40;100512;1346;22882;-34
2022/11/07 10:51:41;;;;;;;6.10;3.80;;;;;;;10.84;90.96;99446.13;100539;1343;22895;-33
2022/11/07 10:54:33;;;;;;;4.90;2.00;;;;;;;11.06;90.52;99445.09;100519;1345;22885;-36
2022/11/07 10:57:03;;;;;;;3.30;1.40;;;;;;;11.59;87.48;99439.05;100550;1340;23226;-37
2022/11/07 10:59:30;;;;;;;4.00;2.20;;;;;;;11.99;85.08;99433.15;100417;1341;22508;-34
2022/11/07 11:01:57;;;;;;;3.70;2.50;;;;;;;11.96;83.06;99439.98;100433;1338;22874;-34
2022/11/07 11:04:25;;;;;;;1.70;0.80;;;;;;;12.03;82.22;99441.19;100633;1341;22703;-37
2022/11/07 11:06:57;;;;;;;3.30;1.90;;;;;;;11.84;82.91;99449.27;100685;1348;22994;-36
2022/11/07 11:09:27;;;;;;;5.30;2.60;;;;;;;11.98;82.61;99445.29;100567;1338;25285;-36
2022/11/07 11:11:53;;;;;;;;;;;;;;;12.11;82.39;99439.79;100358;1348;22746;-33
2022/11/07 11:14:19;;;;;;;12.90;2.10;;;;;;;12.35;80.73;99439.23;100500;1348;22508;-36
2022/11/07 11:16:47;;;;;;;3.10;2.20;;;;;;;12.48;79.31;99440.05;100587;1334;22868;-35
2022/11/07 11:19:20;;;;;;;4.70;1.50;;;;;;;12.11;77.62;99433.63;100553;1336;22897;-34
2022/11/07 11:21:47;;;;;;;3.90;1.80;;;;;;;11.75;79.05;99435.52;100504;1339;22749;-37